PWSweather.com
Personal Weather Stations
Station Observations
NEWFAL01
Newton Falls, OH 44444

Newton Falls, OH 44444

Lat: 41.19902, Lon: -80.97668

Elevation: 920

Station Type: Vantage Pro 2

http://www.mvweathercenter.com

High Low Average
Temperature 40.0°F4.4°C 27.3°F-2.6°C 32.6°F0.3°C
Dew Point 27.5°F-2.5°C 22.8°F-5.1°C 24.8°F-4.0°C
Winds 3.5 mph 5.6 kmh Calm Calm Calm SSWCalm SSW
Wind Gusts 9.2 mph14.8 kmh -- 1.0 mph1.6 kmh
Humidity 85% 56% 73%
Pressure 30.47 in1031.8 mb 30.28 in1025.4 mb -
Precipitation 0.00 in0.0 mm - -
Hour Temp Dew Point Humidity Winds Wind Gusts Pressure Precip Precip Rate Daily Precip Total
12:00 AM 33.8°F1.0°C 26.1°F-3.3°C 73% Calm Calm 3.5 mph5.6 kmh 30.28 in1025.4 mb - 0.00 in0.0 mm 0.00 in0.0 mm
12:10 AM 33.7°F0.9°C 26.0°F-3.3°C 73% Calm Calm 1.2 mph1.9 kmh 30.28 in1025.4 mb - 0.00 in0.0 mm 0.00 in0.0 mm
12:15 AM 33.7°F0.9°C 26.0°F-3.3°C 73% Calm Calm -- 30.28 in1025.4 mb - 0.00 in0.0 mm 0.00 in0.0 mm
12:20 AM 33.6°F0.9°C 25.9°F-3.4°C 73% Calm Calm -- 30.29 in1025.7 mb - 0.00 in0.0 mm 0.00 in0.0 mm
12:25 AM 33.5°F0.8°C 26.1°F-3.3°C 74% Calm Calm 1.2 mph1.9 kmh 30.29 in1025.7 mb - 0.00 in0.0 mm 0.00 in0.0 mm
12:30 AM 33.3°F0.7°C 25.9°F-3.4°C 74% Calm Calm -- 30.29 in1025.7 mb - 0.00 in0.0 mm 0.00 in0.0 mm
12:35 AM 33.2°F0.7°C 25.8°F-3.4°C 74% Calm Calm -- 30.29 in1025.7 mb - 0.00 in0.0 mm 0.00 in0.0 mm
12:40 AM 33.1°F0.6°C 25.7°F-3.5°C 74% Calm Calm -- 30.29 in1025.7 mb - 0.00 in0.0 mm 0.00 in0.0 mm
12:45 AM 33.0°F0.6°C 25.9°F-3.4°C 75% Calm Calm -- 30.29 in1025.7 mb - 0.00 in0.0 mm 0.00 in0.0 mm
12:50 AM 32.9°F0.5°C 25.5°F-3.6°C 74% Calm Calm -- 30.30 in1026.1 mb - 0.00 in0.0 mm 0.00 in0.0 mm
12:55 AM 32.8°F0.4°C 25.7°F-3.5°C 75% Calm Calm -- 30.30 in1026.1 mb - 0.00 in0.0 mm 0.00 in0.0 mm
01:00 AM 32.6°F0.3°C 25.6°F-3.6°C 75% Calm Calm -- 30.30 in1026.1 mb - 0.00 in0.0 mm 0.00 in0.0 mm
01:10 AM 32.5°F0.3°C 25.5°F-3.6°C 75% Calm Calm -- 30.30 in1026.1 mb - 0.00 in0.0 mm 0.00 in0.0 mm
01:15 AM 32.3°F0.2°C 25.6°F-3.6°C 76% Calm Calm -- 30.30 in1026.1 mb - 0.00 in0.0 mm 0.00 in0.0 mm
01:20 AM 32.2°F0.1°C 25.5°F-3.6°C 76% Calm Calm -- 30.31 in1026.4 mb - 0.00 in0.0 mm 0.00 in0.0 mm
01:25 AM 32.1°F0.1°C 25.4°F-3.7°C 76% Calm Calm -- 30.31 in1026.4 mb - 0.00 in0.0 mm 0.00 in0.0 mm
01:30 AM 32.0°F0.0°C 25.3°F-3.7°C 76% Calm Calm -- 30.31 in1026.4 mb - 0.00 in0.0 mm 0.00 in0.0 mm
01:35 AM 31.8°F-0.1°C 25.1°F-3.8°C 76% Calm Calm -- 30.32 in1026.8 mb - 0.00 in0.0 mm 0.00 in0.0 mm
01:40 AM 31.6°F-0.2°C 25.2°F-3.8°C 77% Calm Calm -- 30.31 in1026.4 mb - 0.00 in0.0 mm 0.00 in0.0 mm
01:45 AM 31.5°F-0.3°C 25.1°F-3.8°C 77% Calm Calm -- 30.31 in1026.4 mb - 0.00 in0.0 mm 0.00 in0.0 mm
01:50 AM 31.3°F-0.4°C 25.2°F-3.8°C 78% Calm Calm -- 30.31 in1026.4 mb - 0.00 in0.0 mm 0.00 in0.0 mm
01:55 AM 31.1°F-0.5°C 25.0°F-3.9°C 78% Calm Calm -- 30.31 in1026.4 mb - 0.00 in0.0 mm 0.00 in0.0 mm
02:00 AM 31.0°F-0.6°C 24.9°F-3.9°C 78% Calm Calm -- 30.32 in1026.8 mb - 0.00 in0.0 mm 0.00 in0.0 mm
02:10 AM 30.6°F-0.8°C 24.9°F-3.9°C 79% Calm Calm -- 30.32 in1026.8 mb - 0.00 in0.0 mm 0.00 in0.0 mm
02:15 AM 30.4°F-0.9°C 25.0°F-3.9°C 80% Calm Calm -- 30.32 in1026.8 mb - 0.00 in0.0 mm 0.00 in0.0 mm
02:20 AM 30.2°F-1.0°C 24.8°F-4.0°C 80% Calm Calm -- 30.32 in1026.8 mb - 0.00 in0.0 mm 0.00 in0.0 mm
02:25 AM 30.1°F-1.1°C 24.7°F-4.1°C 80% Calm Calm -- 30.32 in1026.8 mb - 0.00 in0.0 mm 0.00 in0.0 mm
02:30 AM 29.9°F-1.2°C 24.8°F-4.0°C 81% Calm Calm -- 30.32 in1026.8 mb - 0.00 in0.0 mm 0.00 in0.0 mm
02:35 AM 29.8°F-1.2°C 24.7°F-4.1°C 81% Calm Calm -- 30.32 in1026.8 mb - 0.00 in0.0 mm 0.00 in0.0 mm
02:40 AM 29.7°F-1.3°C 24.6°F-4.1°C 81% Calm Calm -- 30.33 in1027.1 mb - 0.00 in0.0 mm 0.00 in0.0 mm
02:45 AM 29.6°F-1.3°C 24.5°F-4.2°C 81% Calm Calm -- 30.32 in1026.8 mb - 0.00 in0.0 mm 0.00 in0.0 mm
02:50 AM 29.5°F-1.4°C 24.4°F-4.2°C 81% Calm Calm -- 30.33 in1027.1 mb - 0.00 in0.0 mm 0.00 in0.0 mm
02:55 AM 29.4°F-1.4°C 24.3°F-4.3°C 81% Calm Calm -- 30.33 in1027.1 mb - 0.00 in0.0 mm 0.00 in0.0 mm
03:00 AM 29.4°F-1.4°C 24.6°F-4.1°C 82% Calm Calm -- 30.32 in1026.8 mb - 0.00 in0.0 mm 0.00 in0.0 mm
03:10 AM 29.4°F-1.4°C 24.6°F-4.1°C 82% Calm Calm -- 30.33 in1027.1 mb - 0.00 in0.0 mm 0.00 in0.0 mm
03:15 AM 29.4°F-1.4°C 24.6°F-4.1°C 82% Calm Calm -- 30.33 in1027.1 mb - 0.00 in0.0 mm 0.00 in0.0 mm
03:20 AM 29.3°F-1.5°C 24.5°F-4.2°C 82% Calm Calm -- 30.33 in1027.1 mb - 0.00 in0.0 mm 0.00 in0.0 mm
03:25 AM 29.2°F-1.6°C 24.4°F-4.2°C 82% Calm Calm -- 30.33 in1027.1 mb - 0.00 in0.0 mm 0.00 in0.0 mm
03:30 AM 29.1°F-1.6°C 24.3°F-4.3°C 82% Calm Calm -- 30.33 in1027.1 mb - 0.00 in0.0 mm 0.00 in0.0 mm
03:35 AM 29.0°F-1.7°C 24.2°F-4.3°C 82% Calm Calm -- 30.33 in1027.1 mb - 0.00 in0.0 mm 0.00 in0.0 mm
03:40 AM 28.9°F-1.7°C 24.4°F-4.2°C 83% Calm Calm -- 30.33 in1027.1 mb - 0.00 in0.0 mm 0.00 in0.0 mm
03:45 AM 28.9°F-1.7°C 24.3°F-4.3°C 83% Calm Calm -- 30.33 in1027.1 mb - 0.00 in0.0 mm 0.00 in0.0 mm
03:50 AM 28.8°F-1.8°C 24.3°F-4.3°C 83% Calm Calm -- 30.34 in1027.4 mb - 0.00 in0.0 mm 0.00 in0.0 mm
03:55 AM 28.7°F-1.8°C 24.2°F-4.3°C 83% Calm Calm -- 30.34 in1027.4 mb - 0.00 in0.0 mm 0.00 in0.0 mm
04:00 AM 28.7°F-1.8°C 24.2°F-4.3°C 83% Calm Calm -- 30.33 in1027.1 mb - 0.00 in0.0 mm 0.00 in0.0 mm
04:10 AM 28.4°F-2.0°C 23.9°F-4.5°C 83% Calm Calm -- 30.34 in1027.4 mb - 0.00 in0.0 mm 0.00 in0.0 mm
04:15 AM 28.4°F-2.0°C 23.9°F-4.5°C 83% Calm Calm -- 30.34 in1027.4 mb - 0.00 in0.0 mm 0.00 in0.0 mm
04:20 AM 28.4°F-2.0°C 24.2°F-4.3°C 84% Calm Calm -- 30.34 in1027.4 mb - 0.00 in0.0 mm 0.00 in0.0 mm
04:25 AM 28.3°F-2.1°C 24.1°F-4.4°C 84% Calm Calm -- 30.34 in1027.4 mb - 0.00 in0.0 mm 0.00 in0.0 mm
04:30 AM 28.3°F-2.1°C 24.1°F-4.4°C 84% Calm Calm -- 30.35 in1027.8 mb - 0.00 in0.0 mm 0.00 in0.0 mm
04:35 AM 28.3°F-2.1°C 24.1°F-4.4°C 84% Calm Calm -- 30.35 in1027.8 mb - 0.00 in0.0 mm 0.00 in0.0 mm
04:40 AM 28.3°F-2.1°C 24.1°F-4.4°C 84% Calm Calm -- 30.36 in1028.1 mb - 0.00 in0.0 mm 0.00 in0.0 mm
04:45 AM 28.2°F-2.1°C 24.0°F-4.4°C 84% Calm Calm -- 30.36 in1028.1 mb - 0.00 in0.0 mm 0.00 in0.0 mm
04:50 AM 28.2°F-2.1°C 24.0°F-4.4°C 84% Calm Calm -- 30.36 in1028.1 mb - 0.00 in0.0 mm 0.00 in0.0 mm
04:55 AM 28.1°F-2.2°C 23.9°F-4.5°C 84% Calm Calm -- 30.35 in1027.8 mb - 0.00 in0.0 mm 0.00 in0.0 mm
05:00 AM 28.1°F-2.2°C 23.9°F-4.5°C 84% Calm Calm -- 30.35 in1027.8 mb - 0.00 in0.0 mm 0.00 in0.0 mm
05:10 AM 28.1°F-2.2°C 23.9°F-4.5°C 84% Calm Calm -- 30.36 in1028.1 mb - 0.00 in0.0 mm 0.00 in0.0 mm
05:15 AM 28.0°F-2.2°C 23.8°F-4.6°C 84% Calm Calm -- 30.36 in1028.1 mb - 0.00 in0.0 mm 0.00 in0.0 mm
05:20 AM 28.0°F-2.2°C 23.8°F-4.6°C 84% Calm Calm -- 30.36 in1028.1 mb - 0.00 in0.0 mm 0.00 in0.0 mm
05:25 AM 27.9°F-2.3°C 23.7°F-4.6°C 84% Calm Calm -- 30.36 in1028.1 mb - 0.00 in0.0 mm 0.00 in0.0 mm
05:30 AM 27.9°F-2.3°C 23.7°F-4.6°C 84% Calm Calm -- 30.37 in1028.4 mb - 0.00 in0.0 mm 0.00 in0.0 mm
05:35 AM 27.8°F-2.3°C 23.6°F-4.7°C 84% Calm Calm -- 30.37 in1028.4 mb - 0.00 in0.0 mm 0.00 in0.0 mm
05:40 AM 27.8°F-2.3°C 23.6°F-4.7°C 84% Calm Calm -- 30.37 in1028.4 mb - 0.00 in0.0 mm 0.00 in0.0 mm
05:45 AM 27.8°F-2.3°C 23.6°F-4.7°C 84% Calm Calm -- 30.38 in1028.8 mb - 0.00 in0.0 mm 0.00 in0.0 mm
05:50 AM 27.7°F-2.4°C 23.5°F-4.7°C 84% Calm Calm -- 30.38 in1028.8 mb - 0.00 in0.0 mm 0.00 in0.0 mm
05:55 AM 27.7°F-2.4°C 23.5°F-4.7°C 84% Calm Calm -- 30.38 in1028.8 mb - 0.00 in0.0 mm 0.00 in0.0 mm
06:00 AM 27.6°F-2.4°C 23.4°F-4.8°C 84% Calm Calm -- 30.38 in1028.8 mb - 0.00 in0.0 mm 0.00 in0.0 mm
06:10 AM 27.5°F-2.5°C 23.3°F-4.8°C 84% Calm Calm -- 30.38 in1028.8 mb - 0.00 in0.0 mm 0.00 in0.0 mm
06:15 AM 27.5°F-2.5°C 23.3°F-4.8°C 84% Calm Calm -- 30.38 in1028.8 mb - 0.00 in0.0 mm 0.00 in0.0 mm
06:20 AM 27.5°F-2.5°C 23.3°F-4.8°C 84% Calm Calm -- 30.38 in1028.8 mb - 0.00 in0.0 mm 0.00 in0.0 mm
06:25 AM 27.5°F-2.5°C 23.6°F-4.7°C 85% Calm Calm -- 30.39 in1029.1 mb - 0.00 in0.0 mm 0.00 in0.0 mm
06:30 AM 27.5°F-2.5°C 23.6°F-4.7°C 85% Calm Calm -- 30.39 in1029.1 mb - 0.00 in0.0 mm 0.00 in0.0 mm
06:35 AM 27.5°F-2.5°C 23.6°F-4.7°C 85% Calm Calm -- 30.39 in1029.1 mb - 0.00 in0.0 mm 0.00 in0.0 mm
06:40 AM 27.5°F-2.5°C 23.6°F-4.7°C 85% Calm Calm -- 30.39 in1029.1 mb - 0.00 in0.0 mm 0.00 in0.0 mm
06:45 AM 27.4°F-2.6°C 23.5°F-4.7°C 85% Calm Calm -- 30.39 in1029.1 mb - 0.00 in0.0 mm 0.00 in0.0 mm
06:50 AM 27.4°F-2.6°C 23.5°F-4.7°C 85% Calm Calm -- 30.39 in1029.1 mb - 0.00 in0.0 mm 0.00 in0.0 mm
06:55 AM 27.4°F-2.6°C 23.5°F-4.7°C 85% Calm Calm -- 30.39 in1029.1 mb - 0.00 in0.0 mm 0.00 in0.0 mm
07:00 AM 27.4°F-2.6°C 23.5°F-4.7°C 85% Calm Calm -- 30.40 in1029.5 mb - 0.00 in0.0 mm 0.00 in0.0 mm
07:10 AM 27.4°F-2.6°C 23.5°F-4.7°C 85% Calm Calm -- 30.41 in1029.8 mb - 0.00 in0.0 mm 0.00 in0.0 mm
07:15 AM 27.3°F-2.6°C 23.4°F-4.8°C 85% Calm Calm -- 30.41 in1029.8 mb - 0.00 in0.0 mm 0.00 in0.0 mm
07:20 AM 27.3°F-2.6°C 23.4°F-4.8°C 85% Calm Calm -- 30.41 in1029.8 mb - 0.00 in0.0 mm 0.00 in0.0 mm
07:25 AM 27.3°F-2.6°C 23.4°F-4.8°C 85% Calm Calm -- 30.42 in1030.1 mb - 0.00 in0.0 mm 0.00 in0.0 mm
07:30 AM 27.3°F-2.6°C 23.4°F-4.8°C 85% Calm Calm -- 30.42 in1030.1 mb - 0.00 in0.0 mm 0.00 in0.0 mm
07:35 AM 27.3°F-2.6°C 23.4°F-4.8°C 85% Calm Calm -- 30.42 in1030.1 mb - 0.00 in0.0 mm 0.00 in0.0 mm
07:40 AM 27.3°F-2.6°C 23.4°F-4.8°C 85% Calm Calm -- 30.42 in1030.1 mb - 0.00 in0.0 mm 0.00 in0.0 mm
07:45 AM 27.4°F-2.6°C 23.5°F-4.7°C 85% Calm Calm -- 30.43 in1030.5 mb - 0.00 in0.0 mm 0.00 in0.0 mm
07:50 AM 27.4°F-2.6°C 23.5°F-4.7°C 85% Calm Calm -- 30.43 in1030.5 mb - 0.00 in0.0 mm 0.00 in0.0 mm
07:55 AM 27.5°F-2.5°C 23.6°F-4.7°C 85% Calm Calm -- 30.43 in1030.5 mb - 0.00 in0.0 mm 0.00 in0.0 mm
08:00 AM 27.6°F-2.4°C 23.7°F-4.6°C 85% Calm Calm -- 30.43 in1030.5 mb - 0.00 in0.0 mm 0.00 in0.0 mm
08:15 AM 28.0°F-2.2°C 24.1°F-4.4°C 85% Calm Calm -- 30.44 in1030.8 mb - 0.00 in0.0 mm 0.00 in0.0 mm
08:20 AM 28.2°F-2.1°C 24.0°F-4.4°C 84% Calm Calm -- 30.45 in1031.2 mb - 0.00 in0.0 mm 0.00 in0.0 mm
08:25 AM 28.4°F-2.0°C 24.2°F-4.3°C 84% Calm Calm -- 30.45 in1031.2 mb - 0.00 in0.0 mm 0.00 in0.0 mm
08:30 AM 28.6°F-1.9°C 24.4°F-4.2°C 84% Calm Calm -- 30.45 in1031.2 mb - 0.00 in0.0 mm 0.00 in0.0 mm
08:35 AM 28.8°F-1.8°C 24.3°F-4.3°C 83% Calm Calm 3.5 mph5.6 kmh 30.45 in1031.2 mb - 0.00 in0.0 mm 0.00 in0.0 mm
08:40 AM 29.0°F-1.7°C 24.5°F-4.2°C 83% Calm Calm -- 30.45 in1031.2 mb - 0.00 in0.0 mm 0.00 in0.0 mm
08:45 AM 29.2°F-1.6°C 24.4°F-4.2°C 82% 2.3 mph N3.7 kmh N 3.5 mph5.6 kmh 30.45 in1031.2 mb - 0.00 in0.0 mm 0.00 in0.0 mm
08:50 AM 29.3°F-1.5°C 24.2°F-4.3°C 81% 2.3 mph N3.7 kmh N 1.2 mph1.9 kmh 30.45 in1031.2 mb - 0.00 in0.0 mm 0.00 in0.0 mm
08:55 AM 29.5°F-1.4°C 24.4°F-4.2°C 81% Calm Calm -- 30.45 in1031.2 mb - 0.00 in0.0 mm 0.00 in0.0 mm
09:00 AM 29.7°F-1.3°C 24.3°F-4.3°C 80% Calm Calm -- 30.45 in1031.2 mb - 0.00 in0.0 mm 0.00 in0.0 mm
09:10 AM 30.1°F-1.1°C 24.4°F-4.2°C 79% 1.2 mph N1.9 kmh N 3.5 mph5.6 kmh 30.45 in1031.2 mb - 0.00 in0.0 mm 0.00 in0.0 mm
09:15 AM 30.2°F-1.0°C 24.2°F-4.3°C 78% Calm Calm -- 30.45 in1031.2 mb - 0.00 in0.0 mm 0.00 in0.0 mm
09:20 AM 30.4°F-0.9°C 24.4°F-4.2°C 78% Calm Calm -- 30.45 in1031.2 mb - 0.00 in0.0 mm 0.00 in0.0 mm
09:25 AM 30.7°F-0.7°C 24.7°F-4.1°C 78% 2.3 mph NE3.7 kmh NE 3.5 mph5.6 kmh 30.45 in1031.2 mb - 0.00 in0.0 mm 0.00 in0.0 mm
09:30 AM 31.0°F-0.6°C 24.6°F-4.1°C 77% 2.3 mph NNE3.7 kmh NNE 3.5 mph5.6 kmh 30.45 in1031.2 mb - 0.00 in0.0 mm 0.00 in0.0 mm
09:35 AM 31.0°F-0.6°C 24.4°F-4.2°C 76% 2.3 mph NNE3.7 kmh NNE 3.5 mph5.6 kmh 30.45 in1031.2 mb - 0.00 in0.0 mm 0.00 in0.0 mm
09:40 AM 31.1°F-0.5°C 24.4°F-4.2°C 76% Calm Calm -- 30.45 in1031.2 mb - 0.00 in0.0 mm 0.00 in0.0 mm
09:45 AM 31.5°F-0.3°C 25.1°F-3.8°C 77% Calm Calm -- 30.45 in1031.2 mb - 0.00 in0.0 mm 0.00 in0.0 mm
09:50 AM 31.9°F-0.1°C 25.2°F-3.8°C 76% Calm Calm -- 30.45 in1031.2 mb - 0.00 in0.0 mm 0.00 in0.0 mm
09:55 AM 32.3°F0.2°C 25.6°F-3.6°C 76% Calm Calm 3.5 mph5.6 kmh 30.45 in1031.2 mb - 0.00 in0.0 mm 0.00 in0.0 mm
10:00 AM 32.7°F0.4°C 25.6°F-3.6°C 75% Calm Calm -- 30.45 in1031.2 mb - 0.00 in0.0 mm 0.00 in0.0 mm
10:10 AM 32.9°F0.5°C 25.5°F-3.6°C 74% 2.3 mph N3.7 kmh N 3.5 mph5.6 kmh 30.46 in1031.5 mb - 0.00 in0.0 mm 0.00 in0.0 mm
10:20 AM 32.9°F0.5°C 24.8°F-4.0°C 72% Calm Calm 3.5 mph5.6 kmh 30.47 in1031.8 mb - 0.00 in0.0 mm 0.00 in0.0 mm
10:25 AM 32.9°F0.5°C 25.2°F-3.8°C 73% 2.3 mph N3.7 kmh N 1.2 mph1.9 kmh 30.47 in1031.8 mb - 0.00 in0.0 mm 0.00 in0.0 mm
10:40 AM 32.9°F0.5°C 25.2°F-3.8°C 73% 1.2 mph N1.9 kmh N 1.2 mph1.9 kmh 30.47 in1031.8 mb - 0.00 in0.0 mm 0.00 in0.0 mm
10:50 AM 34.3°F1.3°C 26.2°F-3.2°C 72% 1.2 mph ENE1.9 kmh ENE 3.5 mph5.6 kmh 30.46 in1031.5 mb - 0.00 in0.0 mm 0.00 in0.0 mm
10:55 AM 34.7°F1.5°C 26.3°F-3.2°C 71% Calm Calm -- 30.46 in1031.5 mb - 0.00 in0.0 mm 0.00 in0.0 mm
11:00 AM 34.9°F1.6°C 26.1°F-3.3°C 70% Calm Calm -- 30.46 in1031.5 mb - 0.00 in0.0 mm 0.00 in0.0 mm
11:10 AM 35.2°F1.8°C 25.7°F-3.5°C 68% 1.2 mph ESE1.9 kmh ESE 4.6 mph7.4 kmh 30.46 in1031.5 mb - 0.00 in0.0 mm 0.00 in0.0 mm
11:15 AM 35.5°F1.9°C 26.3°F-3.2°C 69% 2.3 mph SE3.7 kmh SE 1.2 mph1.9 kmh 30.45 in1031.2 mb - 0.00 in0.0 mm 0.00 in0.0 mm
11:20 AM 35.7°F2.1°C 25.8°F-3.4°C 67% Calm Calm 3.5 mph5.6 kmh 30.46 in1031.5 mb - 0.00 in0.0 mm 0.00 in0.0 mm
11:25 AM 35.6°F2.0°C 25.0°F-3.9°C 65% Calm Calm -- 30.46 in1031.5 mb - 0.00 in0.0 mm 0.00 in0.0 mm
11:30 AM 35.5°F1.9°C 24.5°F-4.2°C 64% 3.5 mph N5.6 kmh N 3.5 mph5.6 kmh 30.46 in1031.5 mb - 0.00 in0.0 mm 0.00 in0.0 mm
11:35 AM 35.6°F2.0°C 26.1°F-3.3°C 68% Calm Calm 3.5 mph5.6 kmh 30.45 in1031.2 mb - 0.00 in0.0 mm 0.00 in0.0 mm
11:40 AM 36.0°F2.2°C 26.1°F-3.3°C 67% Calm Calm 1.2 mph1.9 kmh 30.46 in1031.5 mb - 0.00 in0.0 mm 0.00 in0.0 mm
11:45 AM 36.4°F2.4°C 26.1°F-3.3°C 66% Calm Calm 1.2 mph1.9 kmh 30.46 in1031.5 mb - 0.00 in0.0 mm 0.00 in0.0 mm
11:50 AM 36.6°F2.6°C 25.6°F-3.6°C 64% Calm Calm 4.6 mph7.4 kmh 30.47 in1031.8 mb - 0.00 in0.0 mm 0.00 in0.0 mm
11:55 AM 36.8°F2.7°C 26.1°F-3.3°C 65% Calm Calm -- 30.46 in1031.5 mb - 0.00 in0.0 mm 0.00 in0.0 mm
12:00 PM 36.9°F2.7°C 26.2°F-3.2°C 65% 1.2 mph SE1.9 kmh SE 4.6 mph7.4 kmh 30.46 in1031.5 mb - 0.00 in0.0 mm 0.00 in0.0 mm
12:10 PM 37.1°F2.8°C 26.4°F-3.1°C 65% Calm Calm -- 30.46 in1031.5 mb - 0.00 in0.0 mm 0.00 in0.0 mm
12:15 PM 37.2°F2.9°C 26.1°F-3.3°C 64% 2.3 mph NNE3.7 kmh NNE 4.6 mph7.4 kmh 30.46 in1031.5 mb - 0.00 in0.0 mm 0.00 in0.0 mm
12:20 PM 37.1°F2.8°C 25.3°F-3.7°C 62% Calm Calm -- 30.45 in1031.2 mb - 0.00 in0.0 mm 0.00 in0.0 mm
12:25 PM 37.2°F2.9°C 25.8°F-3.4°C 63% 1.2 mph N1.9 kmh N 1.2 mph1.9 kmh 30.45 in1031.2 mb - 0.00 in0.0 mm 0.00 in0.0 mm
12:30 PM 37.4°F3.0°C 25.9°F-3.4°C 63% 1.2 mph N1.9 kmh N 3.5 mph5.6 kmh 30.45 in1031.2 mb - 0.00 in0.0 mm 0.00 in0.0 mm
12:35 PM 37.7°F3.2°C 27.0°F-2.8°C 65% Calm Calm -- 30.45 in1031.2 mb - 0.00 in0.0 mm 0.00 in0.0 mm
12:40 PM 38.0°F3.3°C 27.3°F-2.6°C 65% 2.3 mph SE3.7 kmh SE 5.8 mph9.3 kmh 30.44 in1030.8 mb - 0.00 in0.0 mm 0.00 in0.0 mm
12:45 PM 38.2°F3.4°C 26.7°F-2.9°C 63% Calm Calm -- 30.45 in1031.2 mb - 0.00 in0.0 mm 0.00 in0.0 mm
12:50 PM 38.1°F3.4°C 27.0°F-2.8°C 64% Calm Calm -- 30.45 in1031.2 mb - 0.00 in0.0 mm 0.00 in0.0 mm
12:55 PM 38.2°F3.4°C 26.7°F-2.9°C 63% Calm Calm -- 30.45 in1031.2 mb - 0.00 in0.0 mm 0.00 in0.0 mm
01:00 PM 38.4°F3.6°C 26.5°F-3.1°C 62% Calm Calm -- 30.45 in1031.2 mb - 0.00 in0.0 mm 0.00 in0.0 mm
01:10 PM 38.5°F3.6°C 25.8°F-3.4°C 60% 2.3 mph N3.7 kmh N 5.8 mph9.3 kmh 30.44 in1030.8 mb - 0.00 in0.0 mm 0.00 in0.0 mm
01:15 PM 38.2°F3.4°C 25.1°F-3.8°C 59% Calm Calm 3.5 mph5.6 kmh 30.44 in1030.8 mb - 0.00 in0.0 mm 0.00 in0.0 mm
01:20 PM 38.0°F3.3°C 25.4°F-3.7°C 60% 1.2 mph N1.9 kmh N 4.6 mph7.4 kmh 30.44 in1030.8 mb - 0.00 in0.0 mm 0.00 in0.0 mm
01:25 PM 38.3°F3.5°C 26.0°F-3.3°C 61% Calm Calm -- 30.44 in1030.8 mb - 0.00 in0.0 mm 0.00 in0.0 mm
01:30 PM 38.5°F3.6°C 25.8°F-3.4°C 60% 3.5 mph N5.6 kmh N 3.5 mph5.6 kmh 30.44 in1030.8 mb - 0.00 in0.0 mm 0.00 in0.0 mm
01:35 PM 38.6°F3.7°C 25.9°F-3.4°C 60% Calm Calm -- 30.43 in1030.5 mb - 0.00 in0.0 mm 0.00 in0.0 mm
01:40 PM 38.9°F3.8°C 27.0°F-2.8°C 62% 1.2 mph N1.9 kmh N -- 30.43 in1030.5 mb - 0.00 in0.0 mm 0.00 in0.0 mm
01:45 PM 39.1°F3.9°C 26.4°F-3.1°C 60% Calm Calm -- 30.43 in1030.5 mb - 0.00 in0.0 mm 0.00 in0.0 mm
01:50 PM 39.4°F4.1°C 27.5°F-2.5°C 62% Calm Calm -- 30.43 in1030.5 mb - 0.00 in0.0 mm 0.00 in0.0 mm
01:55 PM 39.5°F4.2°C 26.0°F-3.3°C 58% 2.3 mph N3.7 kmh N 9.2 mph14.8 kmh 30.42 in1030.1 mb - 0.00 in0.0 mm 0.00 in0.0 mm
02:00 PM 39.3°F4.1°C 25.7°F-3.5°C 58% Calm Calm 3.5 mph5.6 kmh 30.42 in1030.1 mb - 0.00 in0.0 mm 0.00 in0.0 mm
02:10 PM 39.1°F3.9°C 26.0°F-3.3°C 59% 2.3 mph NNE3.7 kmh NNE 3.5 mph5.6 kmh 30.43 in1030.5 mb - 0.00 in0.0 mm 0.00 in0.0 mm
02:15 PM 39.1°F3.9°C 25.6°F-3.6°C 58% Calm Calm 1.2 mph1.9 kmh 30.43 in1030.5 mb - 0.00 in0.0 mm 0.00 in0.0 mm
02:20 PM 39.2°F4.0°C 25.2°F-3.8°C 57% 1.2 mph NNE1.9 kmh NNE 3.5 mph5.6 kmh 30.43 in1030.5 mb - 0.00 in0.0 mm 0.00 in0.0 mm
02:25 PM 39.3°F4.1°C 25.3°F-3.7°C 57% Calm Calm 3.5 mph5.6 kmh 30.42 in1030.1 mb - 0.00 in0.0 mm 0.00 in0.0 mm
02:30 PM 39.5°F4.2°C 25.5°F-3.6°C 57% 1.2 mph NE1.9 kmh NE 3.5 mph5.6 kmh 30.43 in1030.5 mb - 0.00 in0.0 mm 0.00 in0.0 mm
02:35 PM 39.4°F4.1°C 25.0°F-3.9°C 56% 1.2 mph N1.9 kmh N 4.6 mph7.4 kmh 30.42 in1030.1 mb - 0.00 in0.0 mm 0.00 in0.0 mm
02:40 PM 39.3°F4.1°C 25.7°F-3.5°C 58% 2.3 mph ENE3.7 kmh ENE 3.5 mph5.6 kmh 30.42 in1030.1 mb - 0.00 in0.0 mm 0.00 in0.0 mm
02:45 PM 39.4°F4.1°C 25.8°F-3.4°C 58% 1.2 mph N1.9 kmh N 4.6 mph7.4 kmh 30.42 in1030.1 mb - 0.00 in0.0 mm 0.00 in0.0 mm
02:50 PM 39.4°F4.1°C 25.8°F-3.4°C 58% Calm Calm 1.2 mph1.9 kmh 30.42 in1030.1 mb - 0.00 in0.0 mm 0.00 in0.0 mm
02:55 PM 39.5°F4.2°C 25.5°F-3.6°C 57% Calm Calm 1.2 mph1.9 kmh 30.42 in1030.1 mb - 0.00 in0.0 mm 0.00 in0.0 mm
03:00 PM 39.6°F4.2°C 26.0°F-3.3°C 58% Calm Calm -- 30.41 in1029.8 mb - 0.00 in0.0 mm 0.00 in0.0 mm
03:10 PM 39.8°F4.3°C 26.2°F-3.2°C 58% Calm Calm 1.2 mph1.9 kmh 30.42 in1030.1 mb - 0.00 in0.0 mm 0.00 in0.0 mm
03:15 PM 39.9°F4.4°C 26.3°F-3.2°C 58% Calm Calm 1.2 mph1.9 kmh 30.42 in1030.1 mb - 0.00 in0.0 mm 0.00 in0.0 mm
03:20 PM 40.0°F4.4°C 25.6°F-3.6°C 56% Calm Calm 3.5 mph5.6 kmh 30.42 in1030.1 mb - 0.00 in0.0 mm 0.00 in0.0 mm
03:25 PM 39.8°F4.3°C 25.8°F-3.4°C 57% Calm Calm -- 30.42 in1030.1 mb - 0.00 in0.0 mm 0.00 in0.0 mm
03:30 PM 39.7°F4.3°C 25.7°F-3.5°C 57% 1.2 mph N1.9 kmh N 3.5 mph5.6 kmh 30.42 in1030.1 mb - 0.00 in0.0 mm 0.00 in0.0 mm
03:35 PM 39.7°F4.3°C 25.7°F-3.5°C 57% 1.2 mph N1.9 kmh N 1.2 mph1.9 kmh 30.42 in1030.1 mb - 0.00 in0.0 mm 0.00 in0.0 mm
03:40 PM 39.7°F4.3°C 25.7°F-3.5°C 57% 1.2 mph NNE1.9 kmh NNE 3.5 mph5.6 kmh 30.42 in1030.1 mb - 0.00 in0.0 mm 0.00 in0.0 mm
03:45 PM 39.6°F4.2°C 25.6°F-3.6°C 57% 2.3 mph NE3.7 kmh NE 3.5 mph5.6 kmh 30.42 in1030.1 mb - 0.00 in0.0 mm 0.00 in0.0 mm
03:50 PM 39.6°F4.2°C 25.6°F-3.6°C 57% Calm Calm 1.2 mph1.9 kmh 30.42 in1030.1 mb - 0.00 in0.0 mm 0.00 in0.0 mm
03:55 PM 39.5°F4.2°C 25.9°F-3.4°C 58% Calm Calm 1.2 mph1.9 kmh 30.42 in1030.1 mb - 0.00 in0.0 mm 0.00 in0.0 mm
04:00 PM 39.4°F4.1°C 25.8°F-3.4°C 58% Calm Calm 1.2 mph1.9 kmh 30.42 in1030.1 mb - 0.00 in0.0 mm 0.00 in0.0 mm
04:10 PM 39.3°F4.1°C 25.3°F-3.7°C 57% 2.3 mph N3.7 kmh N 3.5 mph5.6 kmh 30.43 in1030.5 mb - 0.00 in0.0 mm 0.00 in0.0 mm
04:15 PM 39.2°F4.0°C 25.2°F-3.8°C 57% Calm Calm -- 30.43 in1030.5 mb - 0.00 in0.0 mm 0.00 in0.0 mm
04:20 PM 39.1°F3.9°C 25.6°F-3.6°C 58% Calm Calm 1.2 mph1.9 kmh 30.43 in1030.5 mb - 0.00 in0.0 mm 0.00 in0.0 mm
04:25 PM 39.2°F4.0°C 25.6°F-3.6°C 58% Calm Calm -- 30.43 in1030.5 mb - 0.00 in0.0 mm 0.00 in0.0 mm
04:30 PM 39.1°F3.9°C 25.6°F-3.6°C 58% Calm Calm -- 30.42 in1030.1 mb - 0.00 in0.0 mm 0.00 in0.0 mm
04:35 PM 39.0°F3.9°C 25.5°F-3.6°C 58% Calm Calm 3.5 mph5.6 kmh 30.43 in1030.5 mb - 0.00 in0.0 mm 0.00 in0.0 mm
04:40 PM 38.9°F3.8°C 25.8°F-3.4°C 59% Calm Calm 3.5 mph5.6 kmh 30.42 in1030.1 mb - 0.00 in0.0 mm 0.00 in0.0 mm
04:45 PM 38.9°F3.8°C 26.2°F-3.2°C 60% Calm Calm 3.5 mph5.6 kmh 30.41 in1029.8 mb - 0.00 in0.0 mm 0.00 in0.0 mm
04:50 PM 39.0°F3.9°C 25.5°F-3.6°C 58% Calm Calm -- 30.41 in1029.8 mb - 0.00 in0.0 mm 0.00 in0.0 mm
04:55 PM 39.0°F3.9°C 25.5°F-3.6°C 58% Calm Calm -- 30.41 in1029.8 mb - 0.00 in0.0 mm 0.00 in0.0 mm
05:00 PM 39.0°F3.9°C 25.9°F-3.4°C 59% 1.2 mph ENE1.9 kmh ENE -- 30.42 in1030.1 mb - 0.00 in0.0 mm 0.00 in0.0 mm
05:10 PM 38.7°F3.7°C 25.6°F-3.6°C 59% Calm Calm 3.5 mph5.6 kmh 30.41 in1029.8 mb - 0.00 in0.0 mm 0.00 in0.0 mm
05:15 PM 38.5°F3.6°C 25.4°F-3.7°C 59% Calm Calm -- 30.41 in1029.8 mb - 0.00 in0.0 mm 0.00 in0.0 mm
05:20 PM 38.4°F3.6°C 25.7°F-3.5°C 60% Calm Calm -- 30.41 in1029.8 mb - 0.00 in0.0 mm 0.00 in0.0 mm
05:30 PM 38.0°F3.3°C 25.3°F-3.7°C 60% Calm Calm 1.2 mph1.9 kmh 30.41 in1029.8 mb - 0.00 in0.0 mm 0.00 in0.0 mm
05:35 PM 37.8°F3.2°C 25.1°F-3.8°C 60% Calm Calm -- 30.41 in1029.8 mb - 0.00 in0.0 mm 0.00 in0.0 mm
05:40 PM 37.6°F3.1°C 25.0°F-3.9°C 60% Calm Calm -- 30.41 in1029.8 mb - 0.00 in0.0 mm 0.00 in0.0 mm
05:45 PM 37.4°F3.0°C 25.2°F-3.8°C 61% Calm Calm -- 30.41 in1029.8 mb - 0.00 in0.0 mm 0.00 in0.0 mm
05:50 PM 37.2°F2.9°C 25.4°F-3.7°C 62% Calm Calm -- 30.41 in1029.8 mb - 0.00 in0.0 mm 0.00 in0.0 mm
05:55 PM 37.0°F2.8°C 25.2°F-3.8°C 62% Calm Calm -- 30.41 in1029.8 mb - 0.00 in0.0 mm 0.00 in0.0 mm
06:00 PM 36.8°F2.7°C 25.0°F-3.9°C 62% Calm Calm -- 30.41 in1029.8 mb - 0.00 in0.0 mm 0.00 in0.0 mm
06:10 PM 36.3°F2.4°C 24.5°F-4.2°C 62% Calm Calm -- 30.41 in1029.8 mb - 0.00 in0.0 mm 0.00 in0.0 mm
06:15 PM 36.1°F2.3°C 24.7°F-4.1°C 63% Calm Calm -- 30.41 in1029.8 mb - 0.00 in0.0 mm 0.00 in0.0 mm
06:20 PM 35.7°F2.1°C 24.7°F-4.1°C 64% Calm Calm -- 30.42 in1030.1 mb - 0.00 in0.0 mm 0.00 in0.0 mm
06:25 PM 35.4°F1.9°C 24.4°F-4.2°C 64% Calm Calm -- 30.41 in1029.8 mb - 0.00 in0.0 mm 0.00 in0.0 mm
06:30 PM 35.0°F1.7°C 24.8°F-4.0°C 66% Calm Calm -- 30.42 in1030.1 mb - 0.00 in0.0 mm 0.00 in0.0 mm
06:35 PM 34.6°F1.4°C 24.4°F-4.2°C 66% Calm Calm -- 30.42 in1030.1 mb - 0.00 in0.0 mm 0.00 in0.0 mm
06:40 PM 34.4°F1.3°C 24.6°F-4.1°C 67% Calm Calm -- 30.42 in1030.1 mb - 0.00 in0.0 mm 0.00 in0.0 mm
06:45 PM 34.0°F1.1°C 24.5°F-4.2°C 68% Calm Calm -- 30.42 in1030.1 mb - 0.00 in0.0 mm 0.00 in0.0 mm
06:50 PM 33.5°F0.8°C 24.8°F-4.0°C 70% Calm Calm -- 30.43 in1030.5 mb - 0.00 in0.0 mm 0.00 in0.0 mm
06:55 PM 33.2°F0.7°C 24.5°F-4.2°C 70% Calm Calm -- 30.43 in1030.5 mb - 0.00 in0.0 mm 0.00 in0.0 mm
07:00 PM 32.9°F0.5°C 24.2°F-4.3°C 70% Calm Calm -- 30.43 in1030.5 mb - 0.00 in0.0 mm 0.00 in0.0 mm
07:10 PM 32.5°F0.3°C 24.1°F-4.4°C 71% Calm Calm -- 30.43 in1030.5 mb - 0.00 in0.0 mm 0.00 in0.0 mm
07:15 PM 32.3°F0.2°C 24.3°F-4.3°C 72% Calm Calm -- 30.43 in1030.5 mb - 0.00 in0.0 mm 0.00 in0.0 mm
07:20 PM 32.1°F0.1°C 24.4°F-4.2°C 73% Calm Calm -- 30.43 in1030.5 mb - 0.00 in0.0 mm 0.00 in0.0 mm
07:25 PM 31.9°F-0.1°C 24.2°F-4.3°C 73% Calm Calm -- 30.43 in1030.5 mb - 0.00 in0.0 mm 0.00 in0.0 mm
07:30 PM 31.7°F-0.2°C 24.0°F-4.4°C 73% Calm Calm -- 30.43 in1030.5 mb - 0.00 in0.0 mm 0.00 in0.0 mm
07:35 PM 31.5°F-0.3°C 24.2°F-4.3°C 74% Calm Calm -- 30.43 in1030.5 mb - 0.00 in0.0 mm 0.00 in0.0 mm
07:40 PM 31.4°F-0.3°C 24.1°F-4.4°C 74% Calm Calm -- 30.43 in1030.5 mb - 0.00 in0.0 mm 0.00 in0.0 mm
07:45 PM 31.3°F-0.4°C 24.3°F-4.3°C 75% Calm Calm -- 30.43 in1030.5 mb - 0.00 in0.0 mm 0.00 in0.0 mm
07:50 PM 31.1°F-0.5°C 24.1°F-4.4°C 75% Calm Calm -- 30.43 in1030.5 mb - 0.00 in0.0 mm 0.00 in0.0 mm
07:55 PM 31.0°F-0.6°C 24.0°F-4.4°C 75% Calm Calm -- 30.43 in1030.5 mb - 0.00 in0.0 mm 0.00 in0.0 mm
08:00 PM 30.9°F-0.6°C 23.9°F-4.5°C 75% Calm Calm -- 30.43 in1030.5 mb - 0.00 in0.0 mm 0.00 in0.0 mm
08:10 PM 30.7°F-0.7°C 24.0°F-4.4°C 76% Calm Calm -- 30.42 in1030.1 mb - 0.00 in0.0 mm 0.00 in0.0 mm
08:15 PM 30.6°F-0.8°C 23.9°F-4.5°C 76% Calm Calm -- 30.43 in1030.5 mb - 0.00 in0.0 mm 0.00 in0.0 mm
08:20 PM 30.5°F-0.8°C 24.1°F-4.4°C 77% Calm Calm -- 30.43 in1030.5 mb - 0.00 in0.0 mm 0.00 in0.0 mm
08:25 PM 30.4°F-0.9°C 24.0°F-4.4°C 77% Calm Calm -- 30.43 in1030.5 mb - 0.00 in0.0 mm 0.00 in0.0 mm
08:30 PM 30.3°F-0.9°C 24.3°F-4.3°C 78% Calm Calm -- 30.43 in1030.5 mb - 0.00 in0.0 mm 0.00 in0.0 mm
08:35 PM 30.2°F-1.0°C 24.2°F-4.3°C 78% Calm Calm -- 30.43 in1030.5 mb - 0.00 in0.0 mm 0.00 in0.0 mm
08:40 PM 30.2°F-1.0°C 24.5°F-4.2°C 79% Calm Calm -- 30.44 in1030.8 mb - 0.00 in0.0 mm 0.00 in0.0 mm
08:45 PM 30.1°F-1.1°C 24.4°F-4.2°C 79% Calm Calm -- 30.43 in1030.5 mb - 0.00 in0.0 mm 0.00 in0.0 mm
08:50 PM 30.1°F-1.1°C 24.4°F-4.2°C 79% Calm Calm -- 30.44 in1030.8 mb - 0.00 in0.0 mm 0.00 in0.0 mm
08:55 PM 30.0°F-1.1°C 24.3°F-4.3°C 79% Calm Calm -- 30.43 in1030.5 mb - 0.00 in0.0 mm 0.00 in0.0 mm
09:00 PM 29.9°F-1.2°C 24.2°F-4.3°C 79% Calm Calm -- 30.43 in1030.5 mb - 0.00 in0.0 mm 0.00 in0.0 mm
09:10 PM 29.8°F-1.2°C 24.1°F-4.4°C 79% Calm Calm -- 30.43 in1030.5 mb - 0.00 in0.0 mm 0.00 in0.0 mm
09:15 PM 29.7°F-1.3°C 24.0°F-4.4°C 79% Calm Calm -- 30.43 in1030.5 mb - 0.00 in0.0 mm 0.00 in0.0 mm
09:20 PM 29.7°F-1.3°C 24.3°F-4.3°C 80% Calm Calm -- 30.44 in1030.8 mb - 0.00 in0.0 mm 0.00 in0.0 mm
09:25 PM 29.6°F-1.3°C 24.2°F-4.3°C 80% Calm Calm -- 30.44 in1030.8 mb - 0.00 in0.0 mm 0.00 in0.0 mm
09:30 PM 29.6°F-1.3°C 24.2°F-4.3°C 80% Calm Calm -- 30.44 in1030.8 mb - 0.00 in0.0 mm 0.00 in0.0 mm
09:35 PM 29.5°F-1.4°C 24.1°F-4.4°C 80% Calm Calm -- 30.44 in1030.8 mb - 0.00 in0.0 mm 0.00 in0.0 mm
09:40 PM 29.5°F-1.4°C 24.1°F-4.4°C 80% Calm Calm -- 30.44 in1030.8 mb - 0.00 in0.0 mm 0.00 in0.0 mm
09:45 PM 29.5°F-1.4°C 24.4°F-4.2°C 81% Calm Calm -- 30.45 in1031.2 mb - 0.00 in0.0 mm 0.00 in0.0 mm
09:50 PM 29.4°F-1.4°C 24.3°F-4.3°C 81% Calm Calm -- 30.45 in1031.2 mb - 0.00 in0.0 mm 0.00 in0.0 mm
09:55 PM 29.4°F-1.4°C 24.3°F-4.3°C 81% Calm Calm -- 30.45 in1031.2 mb - 0.00 in0.0 mm 0.00 in0.0 mm
10:00 PM 29.4°F-1.4°C 24.3°F-4.3°C 81% Calm Calm -- 30.45 in1031.2 mb - 0.00 in0.0 mm 0.00 in0.0 mm
10:10 PM 29.4°F-1.4°C 24.3°F-4.3°C 81% Calm Calm -- 30.44 in1030.8 mb - 0.00 in0.0 mm 0.00 in0.0 mm
10:15 PM 29.4°F-1.4°C 24.3°F-4.3°C 81% Calm Calm 1.2 mph1.9 kmh 30.44 in1030.8 mb - 0.00 in0.0 mm 0.00 in0.0 mm
10:20 PM 29.5°F-1.4°C 24.1°F-4.4°C 80% Calm Calm 1.2 mph1.9 kmh 30.44 in1030.8 mb - 0.00 in0.0 mm 0.00 in0.0 mm
10:25 PM 29.6°F-1.3°C 24.2°F-4.3°C 80% Calm Calm -- 30.45 in1031.2 mb - 0.00 in0.0 mm 0.00 in0.0 mm
10:30 PM 29.7°F-1.3°C 24.0°F-4.4°C 79% Calm Calm 1.2 mph1.9 kmh 30.45 in1031.2 mb - 0.00 in0.0 mm 0.00 in0.0 mm
10:35 PM 29.7°F-1.3°C 24.0°F-4.4°C 79% Calm Calm -- 30.44 in1030.8 mb - 0.00 in0.0 mm 0.00 in0.0 mm
10:40 PM 29.8°F-1.2°C 24.1°F-4.4°C 79% Calm Calm -- 30.44 in1030.8 mb - 0.00 in0.0 mm 0.00 in0.0 mm
10:45 PM 29.8°F-1.2°C 23.7°F-4.6°C 78% 1.2 mph NNE1.9 kmh NNE 1.2 mph1.9 kmh 30.44 in1030.8 mb - 0.00 in0.0 mm 0.00 in0.0 mm
10:50 PM 29.7°F-1.3°C 23.7°F-4.6°C 78% 1.2 mph NNE1.9 kmh NNE 3.5 mph5.6 kmh 30.44 in1030.8 mb - 0.00 in0.0 mm 0.00 in0.0 mm
10:55 PM 29.7°F-1.3°C 23.7°F-4.6°C 78% 1.2 mph NNE1.9 kmh NNE -- 30.45 in1031.2 mb - 0.00 in0.0 mm 0.00 in0.0 mm
11:00 PM 29.8°F-1.2°C 23.5°F-4.7°C 77% Calm Calm -- 30.44 in1030.8 mb - 0.00 in0.0 mm 0.00 in0.0 mm
11:10 PM 29.7°F-1.3°C 23.4°F-4.8°C 77% 1.2 mph NNE1.9 kmh NNE 3.5 mph5.6 kmh 30.43 in1030.5 mb - 0.00 in0.0 mm 0.00 in0.0 mm
11:15 PM 29.6°F-1.3°C 23.3°F-4.8°C 77% Calm Calm -- 30.43 in1030.5 mb - 0.00 in0.0 mm 0.00 in0.0 mm
11:20 PM 29.6°F-1.3°C 23.3°F-4.8°C 77% 1.2 mph NNE1.9 kmh NNE -- 30.43 in1030.5 mb - 0.00 in0.0 mm 0.00 in0.0 mm
11:25 PM 29.6°F-1.3°C 23.2°F-4.9°C 77% Calm Calm 3.5 mph5.6 kmh 30.43 in1030.5 mb - 0.00 in0.0 mm 0.00 in0.0 mm
11:30 PM 29.5°F-1.4°C 23.2°F-4.9°C 77% Calm Calm -- 30.43 in1030.5 mb - 0.00 in0.0 mm 0.00 in0.0 mm
11:35 PM 29.5°F-1.4°C 22.9°F-5.1°C 76% Calm Calm -- 30.43 in1030.5 mb - 0.00 in0.0 mm 0.00 in0.0 mm
11:40 PM 29.5°F-1.4°C 22.9°F-5.1°C 76% Calm Calm -- 30.43 in1030.5 mb - 0.00 in0.0 mm 0.00 in0.0 mm
11:45 PM 29.4°F-1.4°C 22.8°F-5.1°C 76% Calm Calm -- 30.43 in1030.5 mb - 0.00 in0.0 mm 0.00 in0.0 mm
11:50 PM 29.4°F-1.4°C 22.8°F-5.1°C 76% Calm Calm -- 30.43 in1030.5 mb - 0.00 in0.0 mm 0.00 in0.0 mm
11:55 PM 29.4°F-1.4°C 22.8°F-5.1°C 76% Calm Calm -- 30.43 in1030.5 mb - 0.00 in0.0 mm 0.00 in0.0 mm